Flight Track Log - Related Links

Times and Time Zones

All times are in EDT time to prevent confusion due to time zone crossing. See the N510SR flight status page for this flight to view local times or setup timezone preferences in your user account.


Time Position Orientation Groundspeed Altitude Reporting Facility
EDT Latitude Longitude Course Direction KTS MPH feet Rate Location/Type
Tue 12:59:40 PM 44.1394 -69.8942 187° South 402 463 10,100  Level Boston Center
Tue 01:00:40 PM 44.0389 -69.8753 172° South 338 389 11,900 1,950 Climbing Boston Center
Tue 01:01:40 PM 43.9536 -69.8792 182° South 333 383 14,000 1,850 Climbing Boston Center
Tue 01:02:40 PM 43.8392 -69.8869 183° South 363 418 15,600 1,750 Climbing Boston Center
Tue 01:03:00 PM 43.7397 -69.8494 184° South  Level FlightAware Approximate
Tue 01:03:40 PM 43.7392 -69.8939 183° South 398 458 17,500  Level Boston Center
Tue 01:04:00 PM 43.6437 -69.8650 187° South  Level FlightAware Approximate
Tue 01:04:40 PM 43.6125 -69.9081 185° South 417 480 19,000  Level Boston Center
Tue 01:05:40 PM 43.4897 -69.9158 183° South 429 494 20,900 1,800 Climbing Boston Center
Tue 01:06:40 PM 43.3667 -69.9239 183° South 441 507 22,600 1,550 Climbing Boston Center
Tue 01:07:40 PM 43.2419 -69.9347 184° South 441 507 24,000 700 Climbing Boston Center
Tue 01:08:40 PM 43.1317 -69.9450 184° South 446 513 24,000  Level Boston Center
Tue 01:09:40 PM 42.9944 -69.9589 184° South 446 513 24,000  Level Boston Center
Tue 01:10:40 PM 42.8697 -69.9697 184° South 446 513 24,000  Level Boston Center
Tue 01:11:40 PM 42.7531 -69.9800 184° South 454 522 24,000  Level Boston Center
Tue 01:12:40 PM 42.6261 -69.9878 183° South 460 529 24,000  Level Boston Center
Tue 01:13:40 PM 42.5033 -69.9983 184° South 455 524 24,000  Level Boston Center
Tue 01:14:40 PM 42.3744 -70.0119 184° South 460 529 24,000  Level Boston Center
Tue 01:15:40 PM 42.2392 -70.0228 183° South 460 529 24,000  Level Boston Center
Tue 01:16:40 PM 42.1144 -70.0414 186° South 460 529 24,000  Level Boston Center
Tue 01:17:40 PM 42.0117 -70.1014 203° Southwest 451 519 24,000  Level Boston Center
Tue 01:18:40 PM 41.9178 -70.2081 220° Southwest 444 511 24,000  Level Boston Center
Tue 01:19:40 PM 41.8431 -70.3389 233° Southwest 427 491 24,000  Level Boston Center
Tue 01:20:40 PM 41.7639 -70.4556 228° Southwest 427 491 24,000  Level Boston Center
Tue 01:21:40 PM 41.6911 -70.5858 233° Southwest 433 498 24,000  Level Boston Center
Tue 01:22:40 PM 41.6161 -70.7158 232° Southwest 439 505 24,000 -1,200 Level Boston Center
Tue 01:23:40 PM 41.5431 -70.8397 232° Southwest 439 505 21,600 -2,564 Descending Boston Center
Tue 01:24:30 PM 41.4758 -70.9578 233° Southwest 416 479 19,300 -2,690 Descending Boston Center
Tue 01:25:07 PM 41.4308 -71.0308 231° Southwest 400 460 17,700 -2,143 Descending Boston Center
Tue 01:25:40 PM 41.4022 -71.0814 233° Southwest 421 484 16,800 -2,194 Descending Boston Center
Tue 01:26:40 PM 41.3286 -71.2044 231° Southwest 403 464 14,300 -2,300 Descending Boston Center
Tue 01:27:40 PM 41.2692 -71.3022 231° Southwest 393 452 12,200 -1,909 Descending Boston Center
Tue 01:28:52 PM 41.1978 -71.4469 237° Southwest 376 433 10,100 -1,455 Descending Boston Center
Tue 01:29:52 PM 41.1633 -71.5661 249° West 347 399 9,000 -1,600 Descending Boston Center
Tue 01:30:52 PM 41.1267 -71.6769 246° West 335 386 6,900 -1,450 Descending Boston Center
Tue 01:31:52 PM 41.0917 -71.7819 246° West 330 380 6,100 -400 Descending Boston Center
Tue 01:32:52 PM 41.0592 -71.8950 249° West 330 380 6,100 -50 Level Boston Center
Tue 01:33:52 PM 41.0242 -71.9889 244° Southwest 325 374 6,000 -50 Descending Boston Center
Tue 01:34:52 PM 40.9911 -72.0964 248° West 325 374 6,000 -200 Level Boston Center
Tue 01:35:52 PM 40.9706 -72.2036 256° West 314 361 5,600 -1,050 Descending Boston Center
Tue 01:36:52 PM 40.9519 -72.3056 256° West 295 339 3,900 -1,400 Descending Boston Center
Tue 01:37:52 PM 40.9333 -72.4017 256° West 288 331 2,800 -950 Descending Boston Center
Tue 01:38:52 PM 40.9167 -72.4814 255° West 260 299 2,000 -765 Descending Boston Center
Tue 01:41:08 PM 40.8667 -72.6000 241° Southwest 155 178 300 -750 Descending New York TRACON
Tue 01:43:00 PM 40.8333 -72.6167 246° West  Level FlightAware Approximate
Tue 01:50:00 PM 40.8437 -72.6318 246° West  Level Estimated

Login

Don't have an account? Register now (free) for customized features, flight alerts, and more!